createdAt,value
2022-12-06T00:01:48.402Z,19.80
2022-12-06T00:04:14.920Z,19.80
2022-12-06T00:06:41.387Z,19.80
2022-12-06T00:09:07.834Z,19.80
2022-12-06T00:11:34.298Z,19.80
2022-12-06T00:14:00.786Z,19.80
2022-12-06T00:16:27.311Z,19.80
2022-12-06T00:18:53.849Z,19.80
2022-12-06T00:21:20.302Z,19.90
2022-12-06T00:23:46.812Z,19.80
2022-12-06T00:26:13.245Z,19.70
2022-12-06T00:28:39.669Z,19.70
2022-12-06T00:31:06.143Z,19.70
2022-12-06T00:33:32.563Z,19.60
2022-12-06T00:35:59.020Z,19.60
2022-12-06T00:38:25.447Z,20.00
2022-12-06T00:40:51.867Z,19.60
2022-12-06T00:43:18.345Z,19.60
2022-12-06T00:45:44.825Z,19.70
2022-12-06T00:48:11.330Z,19.70
2022-12-06T00:50:37.781Z,19.70
2022-12-06T00:53:04.231Z,19.70
2022-12-06T00:55:30.695Z,19.70
2022-12-06T00:57:57.138Z,19.70
2022-12-06T01:00:23.592Z,19.70
2022-12-06T01:05:17.030Z,19.30
2022-12-06T01:07:43.594Z,19.70
2022-12-06T01:10:10.046Z,19.90
2022-12-06T01:12:36.514Z,19.80
2022-12-06T01:15:02.975Z,19.80
2022-12-06T01:17:29.451Z,19.80
2022-12-06T01:22:23.068Z,20.00
2022-12-06T01:24:49.515Z,19.80
2022-12-06T01:27:15.982Z,19.80
2022-12-06T01:29:42.495Z,19.90
2022-12-06T01:32:09.036Z,19.10
2022-12-06T01:34:35.515Z,19.80
2022-12-06T01:37:01.931Z,19.80
2022-12-06T01:39:28.350Z,19.80
2022-12-06T01:41:54.771Z,19.70
2022-12-06T01:44:21.417Z,19.80
2022-12-06T01:46:47.898Z,19.90
2022-12-06T01:49:14.317Z,19.80
2022-12-06T01:51:40.788Z,19.80
2022-12-06T01:54:07.229Z,20.10
2022-12-06T01:56:33.650Z,19.80
2022-12-06T01:59:00.095Z,19.80
2022-12-06T02:01:26.611Z,19.80
2022-12-06T02:03:53.108Z,19.80
2022-12-06T02:06:19.537Z,19.80
2022-12-06T02:08:45.962Z,19.80
2022-12-06T02:11:12.438Z,19.80
2022-12-06T02:13:38.921Z,19.80
2022-12-06T02:16:05.382Z,19.70
2022-12-06T02:18:31.887Z,19.80
2022-12-06T02:20:58.367Z,19.90
2022-12-06T02:23:24.790Z,19.80
2022-12-06T02:25:51.232Z,19.80
2022-12-06T02:28:17.655Z,19.70
2022-12-06T02:30:44.184Z,20.00
2022-12-06T02:33:10.689Z,19.80
2022-12-06T02:35:37.157Z,19.80
2022-12-06T02:38:03.787Z,19.80
2022-12-06T02:40:31.039Z,19.80
2022-12-06T02:42:57.490Z,19.80
2022-12-06T02:47:52.858Z,19.80
2022-12-06T02:50:19.324Z,19.80
2022-12-06T02:52:45.805Z,19.80
2022-12-06T02:55:12.280Z,19.80
2022-12-06T02:57:38.719Z,19.70
2022-12-06T03:00:05.155Z,19.80
2022-12-06T03:02:31.619Z,19.80
2022-12-06T03:04:58.078Z,19.90
2022-12-06T03:07:24.489Z,19.90
2022-12-06T03:09:50.916Z,19.80
2022-12-06T03:12:17.381Z,19.90
2022-12-06T03:14:43.807Z,19.80
2022-12-06T03:17:10.235Z,19.70
2022-12-06T03:19:36.700Z,19.80
2022-12-06T03:22:03.184Z,20.00
2022-12-06T03:24:29.611Z,19.70
2022-12-06T03:26:56.095Z,19.70
2022-12-06T03:29:22.561Z,19.70
2022-12-06T03:31:49.010Z,19.50
2022-12-06T03:34:15.496Z,19.70
2022-12-06T03:36:41.977Z,19.60
2022-12-06T03:39:08.548Z,19.60
2022-12-06T03:41:35.023Z,19.60
2022-12-06T03:44:01.496Z,19.70
2022-12-06T03:46:28.326Z,19.70
2022-12-06T03:48:54.833Z,19.70
2022-12-06T03:51:21.249Z,19.70
2022-12-06T03:53:47.689Z,19.50
2022-12-06T03:56:14.158Z,19.70
2022-12-06T03:58:40.662Z,19.80
2022-12-06T04:01:07.132Z,19.70
2022-12-06T04:03:33.610Z,19.60
2022-12-06T04:06:00.228Z,19.90
2022-12-06T04:08:26.655Z,19.80
2022-12-06T04:10:53.122Z,19.80
2022-12-06T04:13:20.041Z,19.10
2022-12-06T04:15:46.608Z,19.70
2022-12-06T04:18:13.170Z,19.90
2022-12-06T04:20:39.650Z,20.20
2022-12-06T04:23:06.081Z,19.90
2022-12-06T04:25:32.505Z,19.90
2022-12-06T04:27:58.992Z,19.80
2022-12-06T04:30:25.423Z,19.60
2022-12-06T04:32:51.870Z,19.70
2022-12-06T04:37:45.431Z,20.20
2022-12-06T04:40:11.966Z,20.10
2022-12-06T04:42:38.458Z,19.70
2022-12-06T04:45:04.970Z,19.70
2022-12-06T04:47:31.465Z,19.70
2022-12-06T04:49:58.354Z,19.80
2022-12-06T04:52:25.143Z,19.70
2022-12-06T04:54:51.614Z,19.90
2022-12-06T04:57:18.080Z,19.80
2022-12-06T04:59:44.523Z,19.80
2022-12-06T05:02:10.954Z,19.80
2022-12-06T05:04:37.413Z,19.90
2022-12-06T05:07:03.851Z,19.80
2022-12-06T05:09:30.282Z,19.80
2022-12-06T05:11:56.740Z,19.70
2022-12-06T05:14:23.201Z,19.80
2022-12-06T05:16:49.744Z,19.80
2022-12-06T05:19:16.226Z,19.90
2022-12-06T05:21:42.675Z,19.80
2022-12-06T05:24:09.140Z,19.90
2022-12-06T05:26:35.575Z,19.80
2022-12-06T05:29:01.998Z,20.00
2022-12-06T05:31:28.529Z,19.70
2022-12-06T05:33:55.046Z,19.80
2022-12-06T05:36:21.552Z,19.90
2022-12-06T05:38:51.319Z,19.90
2022-12-06T05:41:18.359Z,19.90
2022-12-06T05:43:44.832Z,19.90
2022-12-06T05:46:11.336Z,19.90
2022-12-06T05:48:37.774Z,19.90
2022-12-06T05:51:04.261Z,19.90
2022-12-06T05:53:30.687Z,19.90
2022-12-06T05:55:57.165Z,20.20
2022-12-06T05:58:23.614Z,20.00
2022-12-06T06:00:50.106Z,19.90
2022-12-06T06:03:16.616Z,19.90
2022-12-06T06:05:43.140Z,19.90
2022-12-06T06:08:09.578Z,19.90
2022-12-06T06:10:36.021Z,19.90
2022-12-06T06:13:02.440Z,19.90
2022-12-06T06:15:28.925Z,19.70
2022-12-06T06:17:55.373Z,20.00
2022-12-06T06:20:21.836Z,20.00
2022-12-06T06:22:48.329Z,20.00
2022-12-06T06:25:14.760Z,20.00
2022-12-06T06:27:41.195Z,19.90
2022-12-06T06:30:07.615Z,19.80
2022-12-06T06:32:34.072Z,19.90
2022-12-06T06:35:00.510Z,19.80
2022-12-06T06:37:27.002Z,19.80
2022-12-06T06:39:53.499Z,19.80
2022-12-06T06:42:19.949Z,19.80
2022-12-06T06:44:46.399Z,19.90
2022-12-06T06:47:12.819Z,19.70
2022-12-06T06:49:39.305Z,19.70
2022-12-06T06:52:05.750Z,19.70
2022-12-06T06:54:32.214Z,19.70
2022-12-06T06:56:58.676Z,19.70
2022-12-06T06:59:25.147Z,19.80
2022-12-06T07:01:51.599Z,19.70
2022-12-06T07:04:18.086Z,19.70
2022-12-06T07:06:44.623Z,19.70
2022-12-06T07:09:11.053Z,19.70
2022-12-06T07:11:37.527Z,19.70
2022-12-06T07:14:03.972Z,19.60
2022-12-06T07:18:57.483Z,19.50
2022-12-06T07:21:23.986Z,19.50
2022-12-06T07:23:50.454Z,19.50
2022-12-06T07:26:16.917Z,19.50
2022-12-06T07:28:43.399Z,19.60
2022-12-06T07:31:10.008Z,19.60
2022-12-06T07:33:36.517Z,19.60
2022-12-06T07:36:11.911Z,19.60
2022-12-06T07:38:39.637Z,19.60
2022-12-06T07:41:06.238Z,19.60
2022-12-06T07:43:32.765Z,19.60
2022-12-06T07:45:59.284Z,19.60
2022-12-06T07:48:25.806Z,19.60
2022-12-06T07:50:52.347Z,19.70
2022-12-06T07:53:18.795Z,19.70
2022-12-06T07:55:45.221Z,19.70
2022-12-06T07:58:11.703Z,19.70
2022-12-06T08:00:38.158Z,19.80
2022-12-06T08:03:04.598Z,19.80
2022-12-06T08:05:31.074Z,19.70
2022-12-06T08:07:57.606Z,19.70
2022-12-06T08:10:24.120Z,19.70
2022-12-06T08:12:50.547Z,19.90
2022-12-06T08:15:16.999Z,19.70
2022-12-06T08:17:43.468Z,19.70
2022-12-06T08:20:09.915Z,20.00
2022-12-06T08:22:36.343Z,19.80
2022-12-06T08:25:02.766Z,19.70
2022-12-06T08:27:29.224Z,19.80
2022-12-06T08:29:55.703Z,19.70
2022-12-06T08:32:22.130Z,19.70
2022-12-06T08:34:48.605Z,19.70
2022-12-06T08:37:15.078Z,19.70
2022-12-06T08:39:41.580Z,19.60
2022-12-06T08:42:08.074Z,19.60
2022-12-06T08:44:34.544Z,19.10
2022-12-06T08:47:01.033Z,19.50
2022-12-06T08:49:27.557Z,19.50
2022-12-06T08:51:54.038Z,19.50
2022-12-06T08:54:20.499Z,19.50
2022-12-06T08:56:46.934Z,19.50
2022-12-06T08:59:13.369Z,19.50
2022-12-06T09:01:39.857Z,19.50
2022-12-06T09:04:06.459Z,19.50
2022-12-06T09:06:32.981Z,19.60
2022-12-06T09:08:59.454Z,19.60
2022-12-06T09:11:25.941Z,19.70
2022-12-06T09:13:52.426Z,19.60
2022-12-06T09:16:18.931Z,19.60
2022-12-06T09:18:45.417Z,19.60
2022-12-06T09:21:11.869Z,19.60
2022-12-06T09:23:38.351Z,19.60
2022-12-06T09:26:04.803Z,19.60
2022-12-06T09:28:31.287Z,19.60
2022-12-06T09:30:57.820Z,19.60
2022-12-06T09:33:24.358Z,19.60
2022-12-06T09:35:50.810Z,19.60
2022-12-06T09:38:17.235Z,19.60
2022-12-06T09:40:43.655Z,19.60
2022-12-06T09:43:10.092Z,19.40
2022-12-06T09:45:36.552Z,19.60
2022-12-06T09:48:02.982Z,19.60
2022-12-06T09:50:29.443Z,19.60
2022-12-06T09:52:55.886Z,19.60
2022-12-06T09:55:22.354Z,19.70
2022-12-06T09:57:48.842Z,19.70
2022-12-06T10:00:19.237Z,19.40
2022-12-06T10:02:48.747Z,19.70
2022-12-06T10:05:15.308Z,19.80
2022-12-06T10:07:41.927Z,19.80
2022-12-06T10:10:08.489Z,19.80
2022-12-06T10:12:34.930Z,19.90
2022-12-06T10:15:01.408Z,19.90
2022-12-06T10:17:27.838Z,19.90
2022-12-06T10:19:54.288Z,19.90
2022-12-06T10:22:20.748Z,19.80
2022-12-06T10:24:47.215Z,19.80
2022-12-06T10:27:13.689Z,19.70
2022-12-06T10:29:40.191Z,19.80
2022-12-06T10:32:06.638Z,19.80
2022-12-06T10:34:33.106Z,19.80
2022-12-06T10:36:59.587Z,19.80
2022-12-06T10:39:26.026Z,19.80
2022-12-06T10:41:52.490Z,19.80
2022-12-06T10:44:18.966Z,19.90
2022-12-06T10:46:45.443Z,19.90
2022-12-06T10:49:11.959Z,19.90
2022-12-06T10:51:38.425Z,19.90
2022-12-06T10:54:04.911Z,19.90
2022-12-06T10:56:31.354Z,19.90
2022-12-06T10:58:57.811Z,19.90
2022-12-06T11:01:24.334Z,19.90
2022-12-06T11:03:50.822Z,19.90
2022-12-06T11:06:17.363Z,19.80
2022-12-06T11:08:43.848Z,19.80
2022-12-06T11:11:10.313Z,19.80
2022-12-06T11:13:36.816Z,19.80
2022-12-06T11:16:03.327Z,19.80
2022-12-06T11:18:29.803Z,19.80
2022-12-06T11:20:56.245Z,19.80
2022-12-06T11:23:22.718Z,19.80
2022-12-06T11:25:49.168Z,19.80
2022-12-06T11:28:15.642Z,19.80
2022-12-06T11:30:42.075Z,19.90
2022-12-06T11:33:08.493Z,19.90
2022-12-06T11:35:34.956Z,19.90
2022-12-06T11:38:01.416Z,19.80
2022-12-06T11:40:27.891Z,19.90
2022-12-06T11:42:54.353Z,19.80
2022-12-06T11:45:20.795Z,19.80
2022-12-06T11:47:47.225Z,19.80
2022-12-06T11:50:16.935Z,19.80
2022-12-06T11:52:43.629Z,19.80
2022-12-06T11:55:10.097Z,19.90
2022-12-06T11:57:36.553Z,19.80
2022-12-06T12:00:03.019Z,19.80
2022-12-06T12:02:29.476Z,19.80
2022-12-06T12:04:55.933Z,19.90
2022-12-06T12:07:22.401Z,19.70
2022-12-06T12:09:48.842Z,19.80
2022-12-06T12:12:15.333Z,19.80
2022-12-06T12:14:44.210Z,19.90
2022-12-06T12:17:14.443Z,19.80
2022-12-06T12:19:40.880Z,19.80
2022-12-06T12:22:07.379Z,19.80
2022-12-06T12:24:38.376Z,20.10
2022-12-06T12:27:22.200Z,19.80
2022-12-06T12:29:50.965Z,19.80
2022-12-06T12:32:17.463Z,19.80
2022-12-06T12:34:44.025Z,19.90
2022-12-06T12:37:10.457Z,19.80
2022-12-06T12:39:36.950Z,19.80
2022-12-06T12:42:03.414Z,19.80
2022-12-06T12:44:37.624Z,19.80
2022-12-06T12:47:05.002Z,19.80
2022-12-06T12:49:31.498Z,19.80
2022-12-06T12:51:57.932Z,19.60
2022-12-06T12:54:24.636Z,19.90
2022-12-06T12:56:51.096Z,19.80
2022-12-06T12:59:17.514Z,19.80
2022-12-06T13:01:44.014Z,19.80
2022-12-06T13:04:10.499Z,19.80
2022-12-06T13:06:36.978Z,19.80
2022-12-06T13:09:03.439Z,19.80
2022-12-06T13:11:29.909Z,19.80
2022-12-06T13:13:56.376Z,19.80
2022-12-06T13:16:22.929Z,19.10
2022-12-06T13:18:49.445Z,19.90
2022-12-06T13:21:15.919Z,20.00
2022-12-06T13:23:42.398Z,19.60
2022-12-06T13:26:08.835Z,20.00
2022-12-06T13:28:35.262Z,20.00
2022-12-06T13:31:01.743Z,20.00
2022-12-06T13:33:28.313Z,19.90
2022-12-06T13:35:54.731Z,19.90
2022-12-06T13:38:26.145Z,19.90
2022-12-06T13:40:53.249Z,19.80
2022-12-06T13:43:19.752Z,19.60
2022-12-06T13:45:46.277Z,19.70
2022-12-06T13:48:12.787Z,19.70
2022-12-06T13:50:39.222Z,19.60
2022-12-06T13:53:05.655Z,19.70
2022-12-06T13:55:32.154Z,19.70
2022-12-06T13:57:58.641Z,19.80
2022-12-06T14:00:25.087Z,19.80
2022-12-06T14:02:51.682Z,19.80
2022-12-06T14:05:18.194Z,19.80
2022-12-06T14:07:44.697Z,19.80
2022-12-06T14:10:11.229Z,19.90
2022-12-06T14:12:37.693Z,19.90
2022-12-06T14:15:04.129Z,19.90
2022-12-06T14:18:00.086Z,19.90
2022-12-06T14:20:17.031Z,19.80
2022-12-06T14:22:43.463Z,19.90
2022-12-06T14:25:09.961Z,19.90
2022-12-06T14:27:36.399Z,19.90
2022-12-06T14:30:03.148Z,19.80
2022-12-06T14:32:29.859Z,19.80
2022-12-06T14:34:56.342Z,20.10
2022-12-06T14:37:22.818Z,19.90
2022-12-06T14:39:49.296Z,19.90
2022-12-06T14:42:15.775Z,20.00
2022-12-06T14:44:42.224Z,20.00
2022-12-06T14:47:08.712Z,20.00
2022-12-06T14:49:35.166Z,19.90
2022-12-06T14:52:01.588Z,20.00
2022-12-06T14:54:28.088Z,20.00
2022-12-06T14:56:54.527Z,20.00
2022-12-06T14:59:38.986Z,19.90
2022-12-06T15:02:07.390Z,20.00
2022-12-06T15:04:33.876Z,19.90
2022-12-06T15:07:00.390Z,20.10
2022-12-06T15:09:26.963Z,20.00
2022-12-06T15:11:53.449Z,20.00
2022-12-06T15:14:19.955Z,19.90
2022-12-06T15:16:46.468Z,19.80
2022-12-06T15:19:12.894Z,19.90
2022-12-06T15:21:39.378Z,19.90
2022-12-06T15:24:05.884Z,19.90
2022-12-06T15:26:32.362Z,19.90
2022-12-06T15:28:58.846Z,19.90
2022-12-06T15:31:25.310Z,19.90
2022-12-06T15:33:51.838Z,20.00
2022-12-06T15:36:18.286Z,20.00
2022-12-06T15:38:44.738Z,20.00
2022-12-06T15:41:11.198Z,20.00
2022-12-06T15:43:37.649Z,20.60
2022-12-06T15:46:04.173Z,20.10
2022-12-06T15:48:30.701Z,20.00
2022-12-06T15:50:57.180Z,19.90
2022-12-06T15:53:23.600Z,20.00
2022-12-06T15:55:50.035Z,19.80
2022-12-06T15:58:16.498Z,20.00
2022-12-06T16:00:42.948Z,20.00
2022-12-06T16:03:09.437Z,19.80
2022-12-06T16:05:35.919Z,20.00
2022-12-06T16:08:02.484Z,20.00
2022-12-06T16:10:42.840Z,20.00
2022-12-06T16:13:15.477Z,19.90
2022-12-06T16:15:41.948Z,19.90
2022-12-06T16:18:08.406Z,19.60
2022-12-06T16:20:34.892Z,19.90
2022-12-06T16:23:01.335Z,20.00
2022-12-06T16:25:27.755Z,19.90
2022-12-06T16:27:54.260Z,19.90
2022-12-06T16:30:20.682Z,20.00
2022-12-06T16:32:47.144Z,20.00
2022-12-06T16:35:13.624Z,20.10
2022-12-06T16:37:40.093Z,20.20
2022-12-06T16:40:06.527Z,20.10
2022-12-06T16:42:33.035Z,20.30
2022-12-06T16:44:59.779Z,20.50
2022-12-06T16:49:51.869Z,20.60
2022-12-06T16:52:18.316Z,21.30
2022-12-06T16:54:44.822Z,20.60
2022-12-06T16:57:11.302Z,20.60
2022-12-06T16:59:37.774Z,20.60
2022-12-06T17:02:08.602Z,20.70
2022-12-06T17:04:39.500Z,20.40
2022-12-06T17:07:05.966Z,21.00
2022-12-06T17:09:32.448Z,20.60
2022-12-06T17:11:58.892Z,20.60
2022-12-06T17:14:25.332Z,20.60
2022-12-06T17:16:51.843Z,20.80
2022-12-06T17:19:18.306Z,20.90
2022-12-06T17:21:44.793Z,20.50
2022-12-06T17:24:11.210Z,20.40
2022-12-06T17:26:37.626Z,20.40
2022-12-06T17:29:04.089Z,20.20
2022-12-06T17:31:30.675Z,20.30
2022-12-06T17:33:57.205Z,20.20
2022-12-06T17:36:25.316Z,20.20
2022-12-06T17:38:51.870Z,20.30
2022-12-06T17:41:18.340Z,20.20
2022-12-06T17:43:44.842Z,20.20
2022-12-06T17:46:11.347Z,20.20
2022-12-06T17:48:43.021Z,20.20
2022-12-06T17:51:10.911Z,20.10
2022-12-06T17:53:37.396Z,20.00
2022-12-06T17:56:03.866Z,20.00
2022-12-06T17:58:30.317Z,19.60
2022-12-06T18:00:56.782Z,20.10
2022-12-06T18:03:23.369Z,20.00
2022-12-06T18:05:49.870Z,19.90
2022-12-06T18:08:16.381Z,20.00
2022-12-06T18:10:42.894Z,20.00
2022-12-06T18:13:09.409Z,19.90
2022-12-06T18:15:35.881Z,20.00
2022-12-06T18:18:02.337Z,19.90
2022-12-06T18:20:28.890Z,19.80
2022-12-06T18:22:55.374Z,20.00
2022-12-06T18:25:21.850Z,20.00
2022-12-06T18:27:48.327Z,19.80
2022-12-06T18:30:14.792Z,19.90
2022-12-06T18:32:41.218Z,20.00
2022-12-06T18:37:34.670Z,20.00
2022-12-06T18:40:01.353Z,20.10
2022-12-06T18:42:27.969Z,20.00
2022-12-06T18:44:58.262Z,20.10
2022-12-06T18:47:25.175Z,20.20
2022-12-06T18:49:51.622Z,19.70
2022-12-06T18:52:18.042Z,20.10
2022-12-06T18:54:44.517Z,20.50
2022-12-06T18:57:10.951Z,20.20
2022-12-06T18:59:37.419Z,19.90
2022-12-06T19:02:03.993Z,20.00
2022-12-06T19:04:30.501Z,20.00
2022-12-06T19:06:57.014Z,20.00
2022-12-06T19:09:23.485Z,20.00
2022-12-06T19:11:49.985Z,20.00
2022-12-06T19:14:16.554Z,20.20
2022-12-06T19:16:43.072Z,20.00
2022-12-06T19:19:15.459Z,20.00
2022-12-06T19:21:42.911Z,20.40
2022-12-06T19:24:09.398Z,20.00
2022-12-06T19:26:35.872Z,20.00
2022-12-06T19:29:02.295Z,20.10
2022-12-06T19:31:28.783Z,20.10
2022-12-06T19:33:55.262Z,20.10
2022-12-06T19:36:21.704Z,20.00
2022-12-06T19:38:48.191Z,20.00
2022-12-06T19:41:14.617Z,19.90
2022-12-06T19:43:45.204Z,20.00
2022-12-06T19:46:12.129Z,19.90
2022-12-06T19:48:38.642Z,20.50
2022-12-06T19:51:05.067Z,20.00
2022-12-06T19:53:31.516Z,20.00
2022-12-06T19:55:58.025Z,19.90
2022-12-06T19:58:24.468Z,19.80
2022-12-06T20:00:50.995Z,19.80
2022-12-06T20:03:17.427Z,19.80
2022-12-06T20:05:43.884Z,19.70
2022-12-06T20:08:10.454Z,19.90
2022-12-06T20:10:36.980Z,19.90
2022-12-06T20:13:03.473Z,19.80
2022-12-06T20:15:29.948Z,19.80
2022-12-06T20:17:56.398Z,19.90
2022-12-06T20:20:22.818Z,19.60
2022-12-06T20:22:49.240Z,19.60
2022-12-06T20:25:15.678Z,19.90
2022-12-06T20:27:42.133Z,19.80
2022-12-06T20:30:08.631Z,20.00
2022-12-06T20:32:35.075Z,19.90
2022-12-06T20:37:28.834Z,19.80
2022-12-06T20:39:55.340Z,19.80
2022-12-06T20:42:21.821Z,19.70
2022-12-06T20:44:48.310Z,19.70
2022-12-06T20:47:14.848Z,19.70
2022-12-06T20:49:41.299Z,19.80
2022-12-06T20:52:07.750Z,19.70
2022-12-06T20:54:34.234Z,19.90
2022-12-06T20:57:00.721Z,19.90
2022-12-06T20:59:27.186Z,20.00
2022-12-06T21:01:53.793Z,20.00
2022-12-06T21:04:20.293Z,20.00
2022-12-06T21:06:46.780Z,20.10
2022-12-06T21:09:13.252Z,20.20
2022-12-06T21:11:39.680Z,20.00
2022-12-06T21:14:06.129Z,20.00
2022-12-06T21:16:32.702Z,20.00
2022-12-06T21:18:59.241Z,20.00
2022-12-06T21:21:25.676Z,20.10
2022-12-06T21:23:52.123Z,19.90
2022-12-06T21:26:18.601Z,20.10
2022-12-06T21:28:45.024Z,20.10
2022-12-06T21:31:11.506Z,20.00
2022-12-06T21:33:37.972Z,20.00
2022-12-06T21:36:04.428Z,20.00
2022-12-06T21:38:30.859Z,20.00
2022-12-06T21:41:01.525Z,19.90
2022-12-06T21:43:28.199Z,19.90
2022-12-06T21:45:54.709Z,20.00
2022-12-06T21:48:21.394Z,20.20
2022-12-06T21:50:47.865Z,19.70
2022-12-06T21:53:14.329Z,20.00
2022-12-06T21:55:40.762Z,20.00
2022-12-06T21:58:07.240Z,20.10
2022-12-06T22:00:33.754Z,20.00
2022-12-06T22:03:00.285Z,20.00
2022-12-06T22:05:26.806Z,20.00
2022-12-06T22:07:53.411Z,20.00
2022-12-06T22:10:19.967Z,20.00
2022-12-06T22:12:46.415Z,20.00
2022-12-06T22:15:12.846Z,20.00
2022-12-06T22:17:39.279Z,19.90
2022-12-06T22:20:05.747Z,20.10
2022-12-06T22:22:32.219Z,20.00
2022-12-06T22:24:58.998Z,20.00
2022-12-06T22:27:25.715Z,20.00
2022-12-06T22:29:52.158Z,19.90
2022-12-06T22:32:18.588Z,19.90
2022-12-06T22:34:45.027Z,19.90
2022-12-06T22:37:11.492Z,19.90
2022-12-06T22:39:37.979Z,19.90
2022-12-06T22:42:04.476Z,19.90
2022-12-06T22:44:30.946Z,19.90
2022-12-06T22:46:57.512Z,19.90
2022-12-06T22:49:23.988Z,19.90
2022-12-06T22:51:50.440Z,19.90
2022-12-06T22:54:16.956Z,20.00
2022-12-06T22:56:43.588Z,20.00
2022-12-06T22:59:10.088Z,19.90
2022-12-06T23:01:36.566Z,19.80
2022-12-06T23:04:03.207Z,20.00
2022-12-06T23:06:29.765Z,19.80
2022-12-06T23:08:56.277Z,19.90
2022-12-06T23:11:22.810Z,19.90
2022-12-06T23:13:49.230Z,19.80
2022-12-06T23:16:15.738Z,19.90
2022-12-06T23:18:42.188Z,20.30
2022-12-06T23:21:08.681Z,19.90
2022-12-06T23:23:35.167Z,19.70
2022-12-06T23:26:01.623Z,19.70
2022-12-06T23:28:28.050Z,19.80
2022-12-06T23:30:54.498Z,19.70
2022-12-06T23:33:22.810Z,19.70
2022-12-06T23:35:49.565Z,19.80
2022-12-06T23:38:16.013Z,19.70
2022-12-06T23:40:42.462Z,19.60
2022-12-06T23:43:08.885Z,19.70
2022-12-06T23:45:35.404Z,19.70
2022-12-06T23:48:01.894Z,19.80
2022-12-06T23:50:28.354Z,19.90
2022-12-06T23:52:54.787Z,19.90
2022-12-06T23:55:21.255Z,19.80
2022-12-06T23:57:47.687Z,19.80
